Overall — Oakridge Mini

Sunday 30 May 2021 · 49 finishers across every class · 2 laps for the winner

Complete overall finishing order for Oakridge Mini.
Pos No. Rider Class Laps Time Behind Int Pace
1 #23A Thomas, Jacob SM 14-15 2 54:02 0:00 27:01
2 #92A LAMBERT,ASHTON SM 14-15 2 55:00 +0:58 0:58 27:30
3 #20A WHITE,SETH SM 14-15 2 55:39 +1:37 0:39 27:49
4 #22C Roach, Anthony MINI 12-13 2 58:46 +4:44 3:07 29:23
5 #18B DAVIS,CHASE SM 12-13 2 59:59 +5:57 1:13 29:59
6 #24A SMITH,RILEY SM 14-15 2 1:00:35 +6:33 0:36 30:17
7 #51B SMITH,JAYTIN SM 12-13 2 1:03:14 +9:12 2:39 31:37
8 #22A COBBS,MALCOLM SM 14-15 2 1:06:26 +12:24 3:12 33:13
9 #5C Weston, Bodie MINI 12-13 2 1:06:27 +12:25 0:01 33:13
10 #26B WILKINS,CURT SM 12-13 2 1:06:49 +12:47 0:22 33:24
11 #94C MCCULLOUGH,RYLAND MINI 12-13 2 1:07:41 +13:39 0:52 33:50
12 #19A WEBER,KYLE SM 14-15 2 1:08:33 +14:31 0:52 34:16
13 #18D EDMONDSON,TUCKER MINI 9-11 2 1:15:48 +21:46 7:15 37:54
14 #8A Huff, Justin SM 14-15 2 1:15:56 +21:54 0:08 37:58
15 #67C Bonanno, Adin MINI 12-13 2 1:16:09 +22:07 0:13 38:04
16 #79A VIAR,BROOKELYN SM 14-15 2 1:17:21 +23:19 1:12 38:40
17 #7C RASNAKE,ZACHARY MINI 12-13 2 1:17:42 +23:40 0:21 38:51
18 #14B CRISLIP,PARKER SM 12-13 2 1:20:36 +26:34 2:54 40:18
19 #11E Finch, Sarah SM WOMEN 2 1:23:18 +29:16 2:42 41:39
20 #42B SCHLICKENMEYER,MIKE SM 12-13 2 1:26:31 +32:29 3:13 43:15
21 #42K LACY,JACK MINI 9-11K 2 1:28:34 +34:32 2:03 44:17
22 #16C Clinedinst, Laird MINI 12-13 2 1:29:53 +35:51 1:19 44:56
23 #77E ADAMSON,ELLA SM WOMEN 2 1:30:30 +36:28 0:37 45:15
24 #38K Bakken, Dash MINI 9-11K 2 1:37:46 +43:44 7:16 48:53
25 #56K BUCHANAN,TUCKER MINI 9-11K 2 1:37:52 +43:50 0:06 48:56
26 #44D Gearhart, Cadence MINI 9-11 2 1:37:58 +43:56 0:06 48:59
27 #38D MAZZOLA,BRENNAN MINI 9-11 2 1:38:19 +44:17 0:21 49:09
28 #19E McKeithan, Alison SM WOMEN 1 52:12 1 lap 0:00 52:12
29 #83C HUFF, ASHTON MINI 12-13 1 53:21 1 lap 1:09 53:21
30 #20E Jacobs, Peyton SM WOMEN 1 53:21 1 lap 0:00 53:21
31 #75K Pugh, Jackson MINI 9-11K 1 54:21 1 lap 1:00 54:21
32 #29K POFF,PEYTON MINI 9-11K 1 55:09 1 lap 0:48 55:09
33 #5D OLEARY, ASHTON MINI 9-11 1 55:21 1 lap 0:12 55:21
34 #32D JOHNSON,BRADY MINI 9-11 1 56:47 1 lap 1:26 56:47
35 #12C Hatchett, Charles MINI 12-13 1 56:48 1 lap 0:01 56:48
36 #18E Hardman, Savannah SM WOMEN 1 56:52 1 lap 0:04 56:52
37 #19B CAWLEY,MASON SM 12-13 1 57:05 1 lap 0:13 57:05
38 #16B Leebeck, Christopher SM 12-13 1 57:38 1 lap 0:33 57:38
39 #36E Cox, Laura SM WOMEN 1 59:39 1 lap 2:01 59:39
40 #88C MILLIS,CONNER MINI 12-13 1 59:59 1 lap 0:20 59:59
41 #43D SMITH, RYAN MINI 9-11 1 1:00:06 1 lap 0:07 1:00:06
42 #16K COWAN,GABRIEL MINI 9-11K 1 1:01:46 1 lap 1:40 1:01:46
43 #30K AUSTIN,BRAYDEN MINI 9-11K 1 1:02:06 1 lap 0:20 1:02:06
44 #27E Leebeck, Scarlett SM WOMEN 1 1:02:44 1 lap 0:38 1:02:44
45 #88G McKeithan, Kathleen TRL WOMEN 1 1:07:05 1 lap 4:21 1:07:05
46 #25D HERTZLER,NOAH MINI 9-11 1 1:07:22 1 lap 0:17 1:07:22
47 #11G BAKKEN,JESSICA TRL WOMEN 1 1:10:27 1 lap 3:05 1:10:27
48 #46G CACCAMO,SHERI TRL WOMEN 1 1:23:23 1 lap 12:56 1:23:23
49 #28G BRYAN,REAGAN TRL WOMEN 1 1:47:37 1 lap 24:14 1:47:37

Ranked the way the series ranks: most laps first, then least time. Behind is the deficit to the winner and is only shown where the lap count matches, because elapsed time says nothing across different lap counts — a rider a lap down shows the laps instead. Int is the gap to the rider immediately ahead.